Longlake, Louisiana
Current Conditions -  °F | °C
As of 12:53 PM on Friday 24 Oct 2014 (Local Time) from KMLU Reporting Station
Clear Clear  
Wind Chill: 68°   Ceiling: Unl
Heat Index: 68°   Visibility: 10mi
Dew Point: 48°   Wind: 0mph
Humidity: 49%   Direction: NA
Pressure: 30.15"   Gusts: NA
Location:  32.1631°N, 92.1971°W
Report Text: KMLU 241753Z 00000KT 10SM CLR 20/09 A3015 RMK AO2 SLP209 T02000089 10206 20067 58016
Loading
Personal Weather Stations






























Interactive Weather Map
Tropical Storm Tracking
New forecast layout! Learn more

10-Day Weather Forecast

Advertisements
Track Severe Weather on mobile